.
WxDataArchive / Data Records for 2006-09-11
2006-09-10 September 2006 2006-09-12

Data Records for Monday, 11 September 2006

Time	Temp	Chill	HIndex	Humid	Dewpt	 Wind 	HiWind	WindDir	Rain 	Barom 
-----	----	-----	------	-----	-----	------	------	-------	-----	----- 
00:00	57.8	57.8	57.8	87	54.0	2	4	90	0.00	30.166 
00:05	57.6	57.6	57.6	87	53.8	1	5	90	0.00	30.166 
00:10	57.6	57.6	57.6	87	53.8	1	4	90	0.00	30.166 
00:15	57.6	57.6	57.6	87	53.8	1	4	90	0.00	30.162 
00:20	57.6	57.6	57.6	88	54.1	2	5	90	0.00	30.162 
00:25	57.5	57.5	57.5	88	54.0	2	3	90	0.00	30.162 
00:30	57.5	57.5	57.5	88	54.0	1	4	90	0.00	30.167 
00:35	57.5	57.5	57.5	88	54.0	1	3	90	0.00	30.167 
00:40	57.5	57.5	57.5	88	54.0	2	4	90	0.00	30.167 
00:45	57.5	57.5	57.5	88	54.0	1	3	112	0.00	30.164 
00:50	57.3	57.3	57.3	88	53.8	1	4	90	0.00	30.164 
00:55	57.3	57.3	57.3	88	53.8	2	3	90	0.00	30.164 
01:00	57.3	57.3	57.3	88	53.8	1	4	90	0.00	30.159 
01:05	57.3	57.3	57.3	89	54.1	2	4	90	0.00	30.159 
01:10	57.3	57.3	57.3	89	54.1	2	4	90	0.00	30.159 
01:15	57.5	57.5	57.5	88	54.0	1	4	90	0.00	30.151 
01:20	57.5	57.5	57.5	88	54.0	1	2	90	0.00	30.151 
01:25	57.5	57.5	57.5	88	54.0	1	2	90	0.00	30.151 
01:30	57.3	57.3	57.3	89	54.1	1	2	90	0.00	30.151 
01:35	57.3	57.3	57.3	89	54.1	0	2	90	0.00	30.151 
01:40	57.2	57.2	57.2	89	54.0	1	5	90	0.00	30.151 
01:45	57.2	57.2	57.2	89	54.0	1	3	112	0.00	30.149 
01:50	57.2	57.2	57.2	89	54.0	0	2	68	0.00	30.149 
01:55	57.2	57.2	57.2	88	53.7	1	3	90	0.00	30.149 
02:00	57.2	57.2	57.2	88	53.7	2	3	90	0.00	30.148 
02:05	57.2	57.2	57.2	88	53.7	1	4	112	0.00	30.148 
02:10	57.2	57.2	57.2	88	53.7	1	3	90	0.00	30.148 
02:15	57.0	57.0	57.0	88	53.5	2	5	112	0.00	30.147 
02:20	57.0	57.0	57.0	87	53.2	1	3	90	0.00	30.147 
02:25	57.0	57.0	57.0	87	53.2	2	4	90	0.00	30.147 
02:30	56.9	56.9	56.9	87	53.1	2	5	90	0.00	30.141 
02:35	56.9	56.9	56.9	86	52.8	2	5	90	0.00	30.141 
02:40	56.9	56.9	56.9	86	52.8	2	5	90	0.00	30.141 
02:45	56.7	56.7	56.7	86	52.6	2	3	90	0.00	30.135 
02:50	56.7	56.7	56.7	86	52.6	2	5	112	0.00	30.135 
02:55	56.6	56.6	56.6	86	52.5	2	6	90	0.00	30.135 
03:00	56.6	56.6	56.6	86	52.5	2	6	68	0.00	30.133 
03:05	56.5	56.5	56.5	85	52.0	2	7	112	0.00	30.133 
03:10	56.5	56.5	56.5	85	52.0	3	6	112	0.00	30.133 
03:15	56.5	56.5	56.5	85	52.0	2	6	90	0.00	30.126 
03:20	56.3	56.3	56.3	85	51.8	3	5	90	0.00	30.126 
03:25	56.3	56.3	56.3	85	51.8	2	5	90	0.00	30.126 
03:30	56.3	56.3	56.3	85	51.8	2	4	90	0.00	30.123 
03:35	56.2	56.2	56.2	85	51.7	2	5	90	0.00	30.123 
03:40	56.2	56.2	56.2	85	51.7	2	5	90	0.00	30.123 
03:45	56.2	56.2	56.2	86	52.1	2	4	90	0.00	30.124 
03:50	56.0	56.0	56.0	86	51.9	2	9	90	0.00	30.124 
03:55	56.0	56.0	56.0	86	51.9	2	5	90	0.00	30.124 
04:00	55.9	55.9	55.9	86	51.8	2	5	112	0.00	30.132 
04:05	55.9	55.9	55.9	86	51.8	1	3	112	0.00	30.132 
04:10	55.9	55.9	55.9	86	51.8	2	5	90	0.00	30.132 
04:15	55.7	55.7	55.7	87	51.9	1	4	90	0.00	30.126 
04:20	55.7	55.7	55.7	87	51.9	2	5	90	0.00	30.126 
04:25	55.7	55.7	55.7	87	51.9	2	4	90	0.00	30.126 
04:30	55.7	55.7	55.7	87	51.9	3	10	90	0.00	30.127 
04:35	55.7	55.7	55.7	87	51.9	2	6	90	0.00	30.127 
04:40	55.7	55.7	55.7	87	51.9	2	6	90	0.00	30.127 
04:45	55.7	55.7	55.7	87	51.9	2	6	90	0.00	30.130 
04:50	55.6	55.6	55.6	87	51.8	2	5	90	0.00	30.130 
04:55	55.6	55.6	55.6	88	52.1	2	6	90	0.00	30.130 
05:00	55.6	55.6	55.6	88	52.1	2	5	112	0.00	30.133 
05:05	55.7	55.7	55.7	88	52.2	2	3	90	0.00	30.133 
05:10	55.7	55.7	55.7	88	52.2	1	4	112	0.00	30.133 
05:15	55.9	55.9	55.9	88	52.4	2	6	112	0.00	30.128 
05:20	56.0	56.0	56.0	88	52.5	3	6	112	0.00	30.128 
05:25	56.0	56.0	56.0	88	52.5	2	4	112	0.00	30.128 
05:30	56.2	56.2	56.2	88	52.7	2	4	112	0.00	30.128 
05:35	56.2	56.2	56.2	88	52.7	3	6	90	0.00	30.128 
05:40	56.3	56.3	56.3	88	52.8	3	6	90	0.00	30.128 
05:45	56.3	56.3	56.3	88	52.8	2	5	90	0.00	30.131 
05:50	56.3	56.3	56.3	88	52.8	3	6	90	0.00	30.131 
05:55	56.3	56.3	56.3	88	52.8	2	5	112	0.00	30.131 
06:00	56.2	56.2	56.2	88	52.7	2	6	112	0.00	30.133 
06:05	56.0	56.0	56.0	88	52.5	3	6	112	0.00	30.133 
06:10	55.9	55.9	55.9	88	52.4	2	5	68	0.00	30.133 
06:15	55.7	55.7	55.7	88	52.2	2	5	112	0.00	30.136 
06:20	55.7	55.7	55.7	88	52.2	2	6	90	0.00	30.136 
06:25	55.7	55.7	55.7	89	52.5	2	4	112	0.00	30.136 
06:30	55.6	55.6	55.6	89	52.4	2	4	112	0.00	30.133 
06:35	55.6	55.6	55.6	89	52.4	2	6	112	0.00	30.133 
06:40	55.6	55.6	55.6	89	52.4	2	4	90	0.00	30.133 
06:45	55.6	55.6	55.6	89	52.4	2	6	90	0.00	30.134 
06:50	55.6	55.6	55.6	89	52.4	1	6	112	0.00	30.134 
06:55	55.6	55.6	55.6	90	52.7	2	5	90	0.00	30.134 
07:00	55.6	55.6	55.6	90	52.7	2	5	90	0.00	30.133 
07:05	55.6	55.6	55.6	90	52.7	2	4	90	0.00	30.133 
07:10	55.6	55.6	55.6	90	52.7	3	6	112	0.00	30.133 
07:15	55.6	55.6	55.6	90	52.7	2	6	90	0.00	30.132 
07:20	55.6	55.6	55.6	90	52.7	2	5	90	0.00	30.132 
07:25	55.6	55.6	55.6	90	52.7	1	4	90	0.00	30.132 
07:30	55.6	55.6	55.6	90	52.7	2	4	90	0.00	30.133 
07:35	55.6	55.6	55.6	90	52.7	2	5	90	0.00	30.133 
07:40	55.6	55.6	55.6	90	52.7	3	6	90	0.00	30.133 
07:45	55.7	55.7	55.7	90	52.8	2	4	90	0.00	30.136 
07:50	55.9	55.9	55.9	89	52.7	2	6	90	0.00	30.136 
07:55	55.9	55.9	55.9	89	52.7	2	4	90	0.00	30.136 
08:00	56.0	56.0	56.0	89	52.8	2	4	90	0.00	30.137 
08:05	56.3	56.3	56.3	89	53.1	1	4	90	0.00	30.137 
08:10	56.5	56.5	56.5	88	53.0	2	4	112	0.00	30.137 
08:15	56.6	56.6	56.6	88	53.1	2	5	112	0.00	30.143 
08:20	56.7	56.7	56.7	88	53.2	3	6	90	0.00	30.143 
08:25	56.9	56.9	56.9	88	53.4	3	5	90	0.00	30.143 
08:30	57.0	57.0	57.0	88	53.5	2	4	90	0.00	30.139 
08:35	57.2	57.2	57.2	88	53.7	1	3	90	0.00	30.139 
08:40	57.5	57.5	57.5	87	53.7	1	3	90	0.00	30.139 
08:45	57.6	57.6	57.6	87	53.8	0	2	90	0.00	30.153 
08:50	58.0	58.0	58.0	87	54.1	2	6	90	0.00	30.153 
08:55	58.1	58.1	58.1	87	54.2	3	9	90	0.00	30.153 
09:00	58.3	58.3	58.3	87	54.4	3	7	90	0.00	30.151 
09:05	58.1	58.1	58.1	88	54.6	3	6	90	0.01	30.151 
09:10	58.0	58.0	58.0	90	55.1	2	4	90	0.00	30.151 
09:15	57.8	57.8	57.8	91	55.2	3	6	90	0.01	30.147 
09:20	57.6	57.6	57.6	91	55.0	3	7	90	0.00	30.147 
09:25	57.6	57.6	57.6	92	55.3	3	7	90	0.00	30.147 
09:30	57.6	57.6	57.6	92	55.3	3	7	90	0.00	30.138 
09:35	57.8	57.8	57.8	92	55.5	3	7	90	0.00	30.138 
09:40	58.1	58.1	58.1	92	55.8	3	7	90	0.00	30.138 
09:45	58.3	58.3	58.3	92	56.0	3	6	90	0.00	30.137 
09:50	58.4	58.4	58.4	92	56.1	2	7	90	0.00	30.137 
09:55	58.4	58.4	58.4	92	56.1	3	6	90	0.00	30.137 
10:00	58.4	58.4	58.4	92	56.1	2	6	90	0.00	30.140 
10:05	58.4	58.4	58.4	92	56.1	3	9	90	0.01	30.140 
10:10	58.6	58.6	58.6	92	56.3	2	7	90	0.00	30.140 
10:15	58.6	58.6	58.6	92	56.3	4	11	90	0.01	30.139 
10:20	58.7	58.7	58.7	92	56.4	3	6	90	0.00	30.139 
10:25	58.9	58.9	58.9	92	56.6	2	6	90	0.01	30.139 
10:30	58.9	58.9	58.9	92	56.6	3	7	90	0.00	30.144 
10:35	58.9	58.9	58.9	92	56.6	2	5	112	0.00	30.144 
10:40	59.0	59.0	59.0	91	56.4	3	9	90	0.00	30.144 
10:45	59.2	59.2	59.2	91	56.6	2	5	112	0.00	30.154 
10:50	59.2	59.2	59.2	91	56.6	4	7	90	0.00	30.154 
10:55	59.2	59.2	59.2	91	56.6	4	7	90	0.05	30.154 
11:00	59.0	59.0	59.0	92	56.7	3	6	90	0.00	30.145 
11:05	58.9	58.9	58.9	93	56.9	2	7	90	0.00	30.145 
11:10	58.9	58.9	58.9	93	56.9	3	5	90	0.00	30.145 
11:15	58.9	58.9	58.9	93	56.9	4	10	112	0.00	30.143 
11:20	58.9	58.9	58.9	93	56.9	4	7	90	0.00	30.143 
11:25	58.9	58.9	58.9	93	56.9	3	6	90	0.01	30.143 
11:30	59.0	59.0	59.0	94	57.3	4	7	90	0.00	30.138 
11:35	59.2	59.2	59.2	94	57.5	3	7	90	0.00	30.138 
11:40	59.5	59.5	59.5	94	57.8	3	6	90	0.00	30.138 
11:45	59.6	59.6	59.6	94	57.9	3	6	90	0.00	30.135 
11:50	60.1	60.1	60.1	94	58.4	3	6	90	0.00	30.135 
11:55	60.5	60.5	60.5	94	58.8	3	10	90	0.00	30.135 
12:00	60.9	60.9	60.9	93	58.9	3	10	90	0.00	30.133 
12:05	61.2	61.2	61.2	92	58.9	3	9	90	0.00	30.133 
12:10	61.5	61.5	61.5	91	58.8	4	11	112	0.00	30.133 
12:15	61.8	61.8	61.8	91	59.1	4	10	90	0.00	30.135 
12:20	62.3	62.3	62.3	89	59.0	4	11	90	0.00	30.135 
12:25	62.6	62.6	62.6	88	59.0	4	10	90	0.00	30.135 
12:30	62.9	62.9	62.9	88	59.3	3	9	90	0.00	30.134 
12:35	63.2	63.2	63.2	87	59.3	3	7	90	0.00	30.134 
12:40	63.5	63.5	63.5	86	59.2	4	9	90	0.00	30.134 
12:45	63.9	63.9	63.9	85	59.3	4	7	90	0.00	30.132 
12:50	64.2	64.2	64.2	85	59.6	4	7	90	0.00	30.132 
12:55	64.5	64.5	64.5	85	59.9	5	12	90	0.00	30.132 
13:00	64.7	64.7	64.7	84	59.7	5	10	90	0.00	30.122 
13:05	64.7	64.7	64.7	82	59.1	5	9	90	0.00	30.122 
13:10	64.7	64.7	64.7	83	59.4	4	7	90	0.00	30.122 
13:15	65.0	65.0	65.0	83	59.7	4	10	90	0.00	30.121 
13:20	65.3	65.3	65.3	83	60.0	4	10	90	0.00	30.121 
13:25	65.6	65.6	65.6	81	59.6	5	13	90	0.00	30.121 
13:30	66.1	66.1	66.1	80	59.7	5	12	90	0.00	30.118 
13:35	66.3	66.3	66.3	79	59.6	5	15	90	0.00	30.118 
13:40	66.6	66.6	66.6	80	60.2	5	10	90	0.00	30.118 
13:45	67.4	67.4	67.4	79	60.7	6	13	90	0.00	30.103 
13:50	68.3	68.3	68.3	78	61.2	4	10	90	0.00	30.103 
13:55	68.8	68.8	68.8	76	60.9	4	9	90	0.00	30.103 
14:00	68.6	68.6	68.6	77	61.1	6	11	90	0.00	30.098 
14:05	68.8	68.8	68.8	76	60.9	5	9	90	0.00	30.098 
14:10	68.8	68.8	68.8	76	60.9	5	10	90	0.00	30.098 
14:15	68.9	68.9	68.9	77	61.4	4	11	112	0.00	30.094 
14:20	68.9	68.9	68.9	75	60.6	3	7	90	0.00	30.094 
14:25	68.8	68.8	68.8	77	61.3	4	11	90	0.00	30.094 
14:30	68.9	68.9	68.9	77	61.4	4	7	90	0.00	30.091 
14:35	69.1	69.1	69.1	77	61.6	3	10	90	0.00	30.091 
14:40	69.6	69.6	69.6	76	61.7	3	5	90	0.00	30.091 
14:45	69.8	69.8	69.8	76	61.9	3	6	90	0.00	30.085 
14:50	70.3	70.3	70.3	77	62.7	2	6	90	0.00	30.085 
14:55	70.9	70.9	70.9	74	62.2	2	5	90	0.00	30.085 
15:00	70.9	70.9	70.9	74	62.2	3	5	90	0.00	30.078 
15:05	70.9	70.9	70.9	74	62.2	3	5	90	0.00	30.078 
15:10	70.9	70.9	70.9	75	62.6	3	6	90	0.00	30.078 
15:15	70.9	70.9	70.9	74	62.2	3	6	90	0.00	30.068 
15:20	70.9	70.9	70.9	74	62.2	2	5	90	0.00	30.068 
15:25	70.9	70.9	70.9	76	62.9	1	4	90	0.00	30.068 
15:30	71.1	71.1	71.1	74	62.4	2	5	90	0.00	30.066 
15:35	71.3	71.3	71.3	74	62.6	3	7	90	0.00	30.066 
15:40	71.5	71.5	71.5	75	63.1	1	3	90	0.00	30.066 
15:45	71.5	71.5	71.5	75	63.1	1	3	90	0.00	30.063 
15:50	71.5	71.5	71.5	76	63.5	2	4	90	0.00	30.063 
15:55	71.1	71.1	71.1	79	64.2	1	3	90	0.01	30.063 
16:00	70.6	70.6	70.6	82	64.8	1	2	90	0.01	30.052 
16:05	69.9	69.9	69.9	84	64.8	0	1	90	0.00	30.052 
16:10	69.6	69.6	69.6	85	64.9	0	1	90	0.00	30.052 
16:15	69.3	69.3	69.3	86	64.9	0	1	90	0.00	30.049 
16:20	69.1	69.1	69.1	86	64.7	0	0	---	0.00	30.049 
16:25	68.8	68.8	68.8	87	64.8	0	0	---	0.01	30.049 
16:30	68.6	68.6	68.6	88	64.9	0	0	---	0.00	30.041 
16:35	68.4	68.4	68.4	89	65.0	0	0	---	0.00	30.041 
16:40	68.3	68.3	68.3	89	64.9	0	0	---	0.00	30.041 
16:45	68.1	68.1	68.1	90	65.0	0	0	---	0.00	30.042 
16:50	68.1	68.1	68.1	90	65.0	0	0	---	0.00	30.042 
16:55	67.9	67.9	67.9	90	64.9	0	0	---	0.00	30.042 
17:00	67.8	67.8	67.8	90	64.8	0	0	---	0.00	30.046 
17:05	67.8	67.8	67.8	91	65.1	0	0	---	0.00	30.046 
17:10	67.8	67.8	67.8	91	65.1	0	0	---	0.00	30.046 
17:15	67.8	67.8	67.8	91	65.1	0	0	---	0.00	30.038 
17:20	67.8	67.8	67.8	92	65.4	0	0	---	0.00	30.038 
17:25	67.9	67.9	67.9	91	65.2	0	0	---	0.00	30.038 
17:30	67.9	67.9	67.9	92	65.5	0	0	---	0.00	30.035 
17:35	68.1	68.1	68.1	91	65.4	0	0	---	0.00	30.035 
17:40	68.1	68.1	68.1	91	65.4	0	0	---	0.00	30.035 
17:45	68.1	68.1	68.1	91	65.4	0	0	---	0.00	30.035 
17:50	68.1	68.1	68.1	90	65.0	0	0	---	0.00	30.035 
17:55	68.1	68.1	68.1	90	65.0	0	0	---	0.00	30.035 
18:00	68.3	68.3	68.3	91	65.6	0	0	---	0.00	30.035 
18:05	68.3	68.3	68.3	91	65.6	0	1	90	0.00	30.035 
18:10	68.4	68.4	68.4	91	65.7	0	1	90	0.00	30.035 
18:15	68.6	68.6	68.6	90	65.5	0	2	90	0.00	30.035 
18:20	68.6	68.6	68.6	89	65.2	0	2	90	0.00	30.035 
18:25	68.6	68.6	68.6	88	64.9	0	2	90	0.00	30.035 
18:30	68.6	68.6	68.6	86	64.2	0	2	90	0.00	30.036 
18:35	68.6	68.6	68.6	86	64.2	0	2	90	0.00	30.036 
18:40	68.8	68.8	68.8	85	64.1	1	3	90	0.00	30.036 
18:45	68.8	68.8	68.8	85	64.1	1	4	90	0.00	30.036 
18:50	68.8	68.8	68.8	85	64.1	2	4	90	0.00	30.036 
18:55	68.6	68.6	68.6	86	64.2	2	4	90	0.00	30.036 
19:00	68.4	68.4	68.4	86	64.0	2	4	90	0.00	30.034 
19:05	68.3	68.3	68.3	86	63.9	2	6	90	0.00	30.034 
19:10	68.1	68.1	68.1	86	63.7	2	6	90	0.00	30.034 
19:15	67.8	67.8	67.8	86	63.5	3	7	112	0.00	30.028 
19:20	67.6	67.6	67.6	87	63.6	3	5	90	0.01	30.028 
19:25	67.3	67.3	67.3	87	63.3	3	7	90	0.00	30.028 
19:30	67.1	67.1	67.1	88	63.4	3	6	90	0.00	30.026 
19:35	66.8	66.8	66.8	89	63.4	3	10	90	0.01	30.026 
19:40	66.8	66.8	66.8	90	63.8	1	3	270	0.01	30.026 
19:45	66.6	66.6	66.6	91	63.9	1	4	338	0.00	30.033 
19:50	66.4	66.4	66.4	91	63.7	3	6	90	0.01	30.033 
19:55	66.3	66.3	66.3	91	63.6	3	6	90	0.00	30.033 
20:00	66.0	66.0	66.0	91	63.3	2	6	90	0.00	30.027 
20:05	65.6	65.6	65.6	91	62.9	3	7	112	0.00	30.027 
20:10	65.5	65.5	65.5	92	63.1	3	9	90	0.00	30.027 
20:15	65.3	65.3	65.3	92	62.9	2	5	90	0.00	30.026 
20:20	65.3	65.3	65.3	91	62.6	3	9	112	0.00	30.026 
20:25	65.2	65.2	65.2	91	62.5	2	4	90	0.00	30.026 
20:30	65.2	65.2	65.2	91	62.5	2	4	90	0.00	30.025 
20:35	65.0	65.0	65.0	91	62.3	3	5	90	0.00	30.025 
20:40	64.8	64.8	64.8	91	62.1	3	9	90	0.00	30.025 
20:45	64.8	64.8	64.8	91	62.1	3	7	90	0.00	30.037 
20:50	64.8	64.8	64.8	91	62.1	2	5	90	0.00	30.037 
20:55	64.7	64.7	64.7	92	62.3	1	4	90	0.00	30.037 
21:00	64.7	64.7	64.7	92	62.3	2	5	90	0.00	30.041 
21:05	64.5	64.5	64.5	92	62.1	1	4	90	0.00	30.041 
21:10	64.5	64.5	64.5	92	62.1	2	5	90	0.00	30.041 
21:15	64.5	64.5	64.5	92	62.1	2	5	90	0.00	30.048 
21:20	64.3	64.3	64.3	92	61.9	3	5	90	0.00	30.048 
21:25	64.3	64.3	64.3	92	61.9	3	5	90	0.00	30.048 
21:30	64.2	64.2	64.2	92	61.8	2	6	90	0.00	30.043 
21:35	64.2	64.2	64.2	92	61.8	2	7	90	0.00	30.043 
21:40	64.2	64.2	64.2	92	61.8	1	3	90	0.00	30.043 
21:45	64.2	64.2	64.2	93	62.1	0	2	90	0.00	30.054 
21:50	64.0	64.0	64.0	93	61.9	1	3	90	0.00	30.054 
21:55	64.0	64.0	64.0	93	61.9	1	4	90	0.00	30.054 
22:00	64.0	64.0	64.0	93	61.9	0	2	90	0.00	30.059 
22:05	64.0	64.0	64.0	93	61.9	1	2	90	0.00	30.059 
22:10	64.0	64.0	64.0	93	61.9	1	2	90	0.00	30.059 
22:15	64.0	64.0	64.0	93	61.9	1	2	90	0.00	30.053 
22:20	64.0	64.0	64.0	94	62.2	1	2	90	0.00	30.053 
22:25	64.0	64.0	64.0	94	62.2	1	3	90	0.00	30.053 
22:30	64.0	64.0	64.0	94	62.2	1	3	90	0.00	30.045 
22:35	64.0	64.0	64.0	94	62.2	1	3	90	0.00	30.045 
22:40	64.0	64.0	64.0	94	62.2	1	3	90	0.00	30.045 
22:45	64.0	64.0	64.0	94	62.2	1	2	90	0.00	30.041 
22:50	64.0	64.0	64.0	94	62.2	0	2	90	0.00	30.041 
22:55	64.0	64.0	64.0	94	62.2	1	3	90	0.00	30.041 
23:00	64.0	64.0	64.0	94	62.2	1	2	90	0.00	30.037 
23:05	63.9	63.9	63.9	94	62.1	0	2	90	0.00	30.037 
23:10	63.9	63.9	63.9	94	62.1	1	3	68	0.00	30.037 
23:15	63.9	63.9	63.9	94	62.1	0	2	68	0.00	30.033 
23:20	63.9	63.9	63.9	95	62.4	0	1	68	0.00	30.033 
23:25	63.9	63.9	63.9	95	62.4	1	2	68	0.00	30.033 
23:30	63.9	63.9	63.9	95	62.4	0	2	68	0.00	30.030 
23:35	63.9	63.9	63.9	95	62.4	0	2	68	0.00	30.030 
23:40	63.9	63.9	63.9	95	62.4	0	1	68	0.00	30.030 
23:45	63.7	63.7	63.7	95	62.2	0	2	68	0.00	30.023 
23:50	63.7	63.7	63.7	95	62.2	1	3	68	0.00	30.023 
23:55	63.7	63.7	63.7	95	62.2	1	3	68	0.00	30.023 

CoCoRaHS
IN-AL-39
A2 Web Hosting
Creative Commons License
GoDaddy
Look for:

loaded 2017-10-16 18:10:48 • last modified 2010-11-18 10:43:29
Privacy PolicyDisclaimer
• wx.awcolley.com is powered by PmWiki v.2002016 •
• all content (unless otherwise noted) © 2017 A W Colley